createdAt,value
2018-12-03T00:01:21.280Z,2.53
2018-12-03T00:03:48.689Z,2.70
2018-12-03T00:06:16.124Z,2.97
2018-12-03T00:08:43.580Z,3.17
2018-12-03T00:11:10.982Z,3.87
2018-12-03T00:13:38.407Z,3.40
2018-12-03T00:16:05.820Z,3.90
2018-12-03T00:18:33.232Z,3.50
2018-12-03T00:21:00.705Z,3.70
2018-12-03T00:23:28.071Z,3.23
2018-12-03T00:25:55.501Z,3.33
2018-12-03T00:28:22.925Z,3.43
2018-12-03T00:30:50.349Z,3.70
2018-12-03T00:33:17.767Z,3.37
2018-12-03T00:35:45.217Z,5.00
2018-12-03T00:38:12.639Z,3.20
2018-12-03T00:40:40.068Z,3.33
2018-12-03T00:43:10.076Z,2.80
2018-12-03T00:45:37.494Z,3.20
2018-12-03T00:48:04.928Z,2.70
2018-12-03T00:50:32.368Z,3.20
2018-12-03T00:52:59.789Z,2.80
2018-12-03T00:55:27.193Z,3.00
2018-12-03T00:57:54.614Z,3.10
2018-12-03T01:00:22.031Z,3.40
2018-12-03T01:02:49.454Z,3.60
2018-12-03T01:05:16.860Z,3.27
2018-12-03T01:07:44.296Z,3.17
2018-12-03T01:10:11.697Z,3.70
2018-12-03T01:12:39.122Z,3.40
2018-12-03T01:15:06.519Z,3.50
2018-12-03T01:17:33.942Z,3.77
2018-12-03T01:20:01.332Z,4.37
2018-12-03T01:22:28.764Z,3.90
2018-12-03T01:24:56.174Z,4.10
2018-12-03T01:27:23.589Z,5.03
2018-12-03T01:29:51.002Z,4.40
2018-12-03T01:32:18.401Z,4.50
2018-12-03T01:34:45.824Z,4.50
2018-12-03T01:37:13.231Z,4.30
2018-12-03T01:39:40.679Z,4.73
2018-12-03T01:42:08.120Z,4.27
2018-12-03T01:44:35.537Z,5.00
2018-12-03T01:47:02.973Z,5.90
2018-12-03T01:49:30.375Z,6.00
2018-12-03T01:51:57.803Z,6.13
2018-12-03T01:54:25.270Z,7.80
2018-12-03T01:56:52.671Z,7.50
2018-12-03T01:59:20.078Z,5.97
2018-12-03T02:01:47.488Z,6.10
2018-12-03T02:04:14.925Z,6.20
2018-12-03T02:06:42.333Z,6.33
2018-12-03T02:09:09.749Z,5.27
2018-12-03T02:11:37.181Z,6.13
2018-12-03T02:14:04.583Z,5.57
2018-12-03T02:16:31.991Z,5.33
2018-12-03T02:18:59.411Z,4.27
2018-12-03T02:21:26.825Z,3.80
2018-12-03T02:23:54.295Z,3.60
2018-12-03T02:26:21.669Z,3.80
2018-12-03T02:28:49.077Z,4.40
2018-12-03T02:31:16.532Z,3.83
2018-12-03T02:33:43.939Z,3.07
2018-12-03T02:36:11.371Z,3.00
2018-12-03T02:38:38.796Z,3.03
2018-12-03T02:41:06.197Z,2.80
2018-12-03T02:43:33.634Z,3.40
2018-12-03T02:46:01.045Z,3.23
2018-12-03T02:48:28.444Z,2.90
2018-12-03T02:50:55.871Z,2.73
2018-12-03T02:53:23.284Z,2.87
2018-12-03T02:55:50.727Z,2.87
2018-12-03T02:58:18.130Z,2.00
2018-12-03T03:00:46.347Z,2.10
2018-12-03T03:03:12.969Z,1.90
2018-12-03T03:05:40.392Z,2.50
2018-12-03T03:08:07.838Z,2.47
2018-12-03T03:10:35.369Z,1.80
2018-12-03T03:13:02.798Z,1.60
2018-12-03T03:15:30.227Z,2.30
2018-12-03T03:17:57.644Z,2.57
2018-12-03T03:20:25.066Z,2.10
2018-12-03T03:22:52.467Z,2.20
2018-12-03T03:25:19.889Z,2.20
2018-12-03T03:27:47.296Z,1.90
2018-12-03T03:30:14.733Z,2.30
2018-12-03T03:32:42.154Z,1.90
2018-12-03T03:35:09.558Z,1.97
2018-12-03T03:37:36.984Z,2.03
2018-12-03T03:40:04.405Z,2.77
2018-12-03T03:42:31.831Z,2.30
2018-12-03T03:44:59.423Z,2.10
2018-12-03T03:47:26.797Z,4.13
2018-12-03T03:49:54.195Z,2.20
2018-12-03T03:52:21.633Z,2.80
2018-12-03T03:54:49.109Z,2.63
2018-12-03T03:57:16.507Z,2.90
2018-12-03T03:59:43.915Z,3.07
2018-12-03T04:02:11.347Z,2.53
2018-12-03T04:04:38.762Z,2.60
2018-12-03T04:07:06.183Z,3.60
2018-12-03T04:09:33.605Z,2.80
2018-12-03T04:12:01.054Z,2.87
2018-12-03T04:14:28.471Z,2.60
2018-12-03T04:17:06.519Z,2.57
2018-12-03T04:19:32.288Z,2.70
2018-12-03T04:21:59.721Z,2.90
2018-12-03T04:24:27.160Z,2.20
2018-12-03T04:26:54.573Z,2.20
2018-12-03T04:29:22.001Z,2.10
2018-12-03T04:31:49.412Z,2.07
2018-12-03T04:34:16.839Z,2.40
2018-12-03T04:36:44.237Z,2.23
2018-12-03T04:39:11.677Z,2.07
2018-12-03T04:41:39.089Z,2.00
2018-12-03T04:44:06.519Z,4.73
2018-12-03T04:46:33.981Z,1.97
2018-12-03T04:49:01.382Z,2.20
2018-12-03T04:51:28.798Z,2.03
2018-12-03T04:53:56.201Z,2.50
2018-12-03T04:56:23.620Z,2.57
2018-12-03T04:58:51.019Z,2.27
2018-12-03T05:01:18.447Z,2.40
2018-12-03T05:03:45.866Z,2.40
2018-12-03T05:06:13.265Z,2.20
2018-12-03T05:08:40.695Z,1.90
2018-12-03T05:11:08.122Z,2.40
2018-12-03T05:13:35.546Z,1.90
2018-12-03T05:16:02.963Z,2.70
2018-12-03T05:18:30.392Z,2.97
2018-12-03T05:20:57.794Z,2.63
2018-12-03T05:23:25.223Z,3.00
2018-12-03T05:25:52.649Z,2.03
2018-12-03T05:28:20.048Z,2.33
2018-12-03T05:30:47.458Z,2.53
2018-12-03T05:33:14.863Z,2.83
2018-12-03T05:35:42.289Z,2.77
2018-12-03T05:38:09.753Z,2.73
2018-12-03T05:40:37.185Z,2.37
2018-12-03T05:43:04.605Z,3.03
2018-12-03T05:45:32.041Z,2.70
2018-12-03T05:47:59.472Z,2.77
2018-12-03T05:50:26.880Z,2.63
2018-12-03T05:52:54.304Z,3.20
2018-12-03T05:55:21.737Z,2.57
2018-12-03T05:57:49.158Z,3.50
2018-12-03T06:00:16.572Z,3.40
2018-12-03T06:02:44.035Z,3.43
2018-12-03T06:05:11.468Z,3.30
2018-12-03T06:07:38.923Z,3.37
2018-12-03T06:10:06.335Z,3.77
2018-12-03T06:12:33.847Z,3.80
2018-12-03T06:15:01.258Z,3.40
2018-12-03T06:17:28.666Z,3.27
2018-12-03T06:19:56.093Z,3.60
2018-12-03T06:22:23.532Z,4.10
2018-12-03T06:24:50.937Z,3.90
2018-12-03T06:27:18.360Z,4.10
2018-12-03T06:29:45.788Z,4.83
2018-12-03T06:32:13.198Z,3.40
2018-12-03T06:34:40.637Z,3.97
2018-12-03T06:37:08.034Z,4.43
2018-12-03T06:39:35.467Z,3.67
2018-12-03T06:42:02.879Z,4.00
2018-12-03T06:44:30.304Z,3.77
2018-12-03T06:46:57.720Z,3.70
2018-12-03T06:49:25.164Z,3.40
2018-12-03T06:51:52.617Z,3.20
2018-12-03T06:54:19.988Z,4.03
2018-12-03T06:56:47.422Z,3.60
2018-12-03T06:59:14.829Z,3.90
2018-12-03T07:01:42.248Z,2.97
2018-12-03T07:04:09.655Z,3.37
2018-12-03T07:06:37.101Z,3.23
2018-12-03T07:09:04.527Z,3.50
2018-12-03T07:11:31.955Z,3.50
2018-12-03T07:13:59.395Z,3.73
2018-12-03T07:16:26.828Z,3.20
2018-12-03T07:18:54.253Z,4.87
2018-12-03T07:21:21.659Z,3.93
2018-12-03T07:23:49.094Z,5.70
2018-12-03T07:26:16.490Z,4.63
2018-12-03T07:28:43.916Z,3.93
2018-12-03T07:31:11.336Z,3.50
2018-12-03T07:33:38.783Z,3.73
2018-12-03T07:36:06.185Z,3.67
2018-12-03T07:38:33.721Z,4.30
2018-12-03T07:41:01.029Z,4.00
2018-12-03T07:43:28.448Z,4.30
2018-12-03T07:45:55.905Z,4.30
2018-12-03T07:48:23.332Z,4.77
2018-12-03T07:50:50.754Z,6.97
2018-12-03T07:53:18.192Z,4.17
2018-12-03T07:55:45.628Z,4.17
2018-12-03T07:58:13.063Z,3.60
2018-12-03T08:00:40.515Z,4.10
2018-12-03T08:03:07.924Z,4.13
2018-12-03T08:05:35.359Z,4.20
2018-12-03T08:08:02.789Z,4.10
2018-12-03T08:10:30.203Z,4.00
2018-12-03T08:12:57.647Z,3.87
2018-12-03T08:15:25.033Z,4.50
2018-12-03T08:17:52.464Z,4.70
2018-12-03T08:20:19.881Z,3.93
2018-12-03T08:22:47.306Z,5.37
2018-12-03T08:25:14.733Z,3.80
2018-12-03T08:27:42.176Z,3.50
2018-12-03T08:30:09.620Z,4.37
2018-12-03T08:32:37.028Z,4.13
2018-12-03T08:35:04.457Z,4.80
2018-12-03T08:37:31.859Z,5.67
2018-12-03T08:39:59.291Z,4.40
2018-12-03T08:42:26.733Z,4.37
2018-12-03T08:44:54.133Z,4.20
2018-12-03T08:47:21.555Z,4.67
2018-12-03T08:49:48.985Z,4.87
2018-12-03T08:52:16.393Z,4.80
2018-12-03T08:54:43.838Z,4.20
2018-12-03T08:57:11.253Z,4.60
2018-12-03T08:59:38.684Z,4.33
2018-12-03T09:02:06.120Z,4.47
2018-12-03T09:04:33.539Z,4.40
2018-12-03T09:07:00.976Z,4.53
2018-12-03T09:09:28.399Z,4.33
2018-12-03T09:11:55.832Z,3.97
2018-12-03T09:14:23.233Z,4.23
2018-12-03T09:16:50.671Z,4.30
2018-12-03T09:19:18.069Z,3.67
2018-12-03T09:21:45.496Z,3.83
2018-12-03T09:24:12.905Z,3.60
2018-12-03T09:26:40.336Z,4.53
2018-12-03T09:29:07.744Z,4.03
2018-12-03T09:31:35.185Z,3.53
2018-12-03T09:34:02.600Z,3.93
2018-12-03T09:36:30.015Z,4.00
2018-12-03T09:38:57.442Z,3.27
2018-12-03T09:41:24.849Z,3.87
2018-12-03T09:43:52.287Z,3.53
2018-12-03T09:46:19.727Z,3.50
2018-12-03T09:48:47.147Z,4.00
2018-12-03T09:51:14.574Z,3.17
2018-12-03T09:53:42.021Z,3.70
2018-12-03T09:56:09.432Z,3.80
2018-12-03T09:58:36.841Z,4.23
2018-12-03T10:01:04.290Z,3.50
2018-12-03T10:03:31.706Z,3.57
2018-12-03T10:05:59.158Z,4.07
2018-12-03T10:08:26.560Z,3.90
2018-12-03T10:10:53.985Z,3.60
2018-12-03T10:13:21.386Z,4.10
2018-12-03T10:15:48.814Z,4.17
2018-12-03T10:18:16.229Z,4.43
2018-12-03T10:20:43.659Z,3.87
2018-12-03T10:23:11.103Z,3.90
2018-12-03T10:25:38.493Z,3.90
2018-12-03T10:28:05.897Z,3.47
2018-12-03T10:30:33.340Z,4.10
2018-12-03T10:33:00.768Z,3.73
2018-12-03T10:35:28.199Z,3.87
2018-12-03T10:37:55.614Z,4.20
2018-12-03T10:40:23.046Z,3.90
2018-12-03T10:42:50.482Z,4.13
2018-12-03T10:45:17.934Z,4.40
2018-12-03T10:47:45.400Z,4.53
2018-12-03T10:50:12.819Z,4.80
2018-12-03T10:52:40.255Z,3.90
2018-12-03T10:55:07.674Z,4.90
2018-12-03T10:57:35.107Z,4.50
2018-12-03T11:00:02.518Z,4.97
2018-12-03T11:02:29.939Z,4.70
2018-12-03T11:04:57.346Z,4.63
2018-12-03T11:07:24.778Z,4.60
2018-12-03T11:09:52.184Z,4.60
2018-12-03T11:12:19.608Z,8.17
2018-12-03T11:14:47.011Z,4.80
2018-12-03T11:17:14.461Z,4.67
2018-12-03T11:19:41.887Z,4.77
2018-12-03T11:22:09.306Z,4.97
2018-12-03T11:24:36.726Z,4.30
2018-12-03T11:27:04.137Z,5.10
2018-12-03T11:29:31.592Z,5.67
2018-12-03T11:31:58.948Z,5.00
2018-12-03T11:34:26.382Z,5.47
2018-12-03T11:36:53.790Z,4.50
2018-12-03T11:39:21.239Z,4.50
2018-12-03T11:41:48.647Z,4.00
2018-12-03T11:44:16.051Z,4.23
2018-12-03T11:46:43.511Z,3.80
2018-12-03T11:49:10.943Z,3.20
2018-12-03T11:51:38.361Z,3.83
2018-12-03T11:54:05.791Z,3.40
2018-12-03T11:56:33.226Z,3.60
2018-12-03T11:59:00.642Z,3.30
2018-12-03T12:01:28.082Z,3.70
2018-12-03T12:03:55.499Z,2.83
2018-12-03T12:06:22.918Z,3.13
2018-12-03T12:08:50.339Z,3.20
2018-12-03T12:11:17.777Z,3.03
2018-12-03T12:13:45.170Z,3.23
2018-12-03T12:16:12.574Z,3.20
2018-12-03T12:18:40.001Z,3.00
2018-12-03T12:21:07.401Z,3.67
2018-12-03T12:23:34.840Z,2.83
2018-12-03T12:26:02.243Z,3.80
2018-12-03T12:28:29.688Z,3.30
2018-12-03T12:30:57.123Z,3.50
2018-12-03T12:33:24.530Z,3.63
2018-12-03T12:35:51.958Z,3.37
2018-12-03T12:38:19.393Z,3.03
2018-12-03T12:40:46.815Z,3.47
2018-12-03T12:43:14.221Z,3.37
2018-12-03T12:45:41.688Z,3.53
2018-12-03T12:48:09.114Z,3.20
2018-12-03T12:50:36.541Z,3.90
2018-12-03T12:53:03.977Z,3.87
2018-12-03T12:55:31.393Z,5.20
2018-12-03T12:57:58.850Z,4.20
2018-12-03T13:00:26.234Z,5.03
2018-12-03T13:02:53.679Z,4.10
2018-12-03T13:05:21.087Z,5.47
2018-12-03T13:07:48.485Z,5.03
2018-12-03T13:10:15.922Z,5.17
2018-12-03T13:12:43.354Z,5.00
2018-12-03T13:15:10.775Z,5.53
2018-12-03T13:17:38.225Z,5.20
2018-12-03T13:20:05.640Z,5.83
2018-12-03T13:22:33.056Z,5.50
2018-12-03T13:25:00.501Z,5.03
2018-12-03T13:27:27.897Z,5.20
2018-12-03T13:29:55.338Z,5.10
2018-12-03T13:32:22.756Z,6.43
2018-12-03T13:34:50.185Z,5.00
2018-12-03T13:37:17.618Z,5.10
2018-12-03T13:39:45.046Z,4.77
2018-12-03T13:42:12.498Z,5.30
2018-12-03T13:44:39.912Z,4.90
2018-12-03T13:47:07.344Z,5.03
2018-12-03T13:49:34.756Z,4.03
2018-12-03T13:52:02.199Z,3.77
2018-12-03T13:54:29.687Z,3.90
2018-12-03T13:56:57.068Z,3.00
2018-12-03T13:59:24.498Z,3.13
2018-12-03T14:01:51.923Z,3.03
2018-12-03T14:04:19.353Z,2.47
2018-12-03T14:06:46.773Z,2.33
2018-12-03T14:09:14.213Z,2.60
2018-12-03T14:11:41.618Z,2.13
2018-12-03T14:14:09.029Z,2.00
2018-12-03T14:16:36.466Z,1.70
2018-12-03T14:19:03.897Z,1.60
2018-12-03T14:21:31.297Z,1.60
2018-12-03T14:23:58.714Z,2.00
2018-12-03T14:26:26.126Z,1.70
2018-12-03T14:28:53.567Z,1.80
2018-12-03T14:31:20.988Z,1.80
2018-12-03T14:33:48.409Z,2.27
2018-12-03T14:36:15.825Z,2.20
2018-12-03T14:38:43.242Z,1.73
2018-12-03T14:41:10.646Z,2.80
2018-12-03T14:43:38.080Z,2.47
2018-12-03T14:46:05.518Z,2.50
2018-12-03T14:48:32.917Z,2.13
2018-12-03T14:51:00.350Z,1.80
2018-12-03T14:53:27.777Z,1.83
2018-12-03T14:55:55.202Z,2.00
2018-12-03T14:58:22.604Z,2.10
2018-12-03T15:00:50.030Z,1.80
2018-12-03T15:03:17.434Z,2.20
2018-12-03T15:05:44.862Z,2.50
2018-12-03T15:08:12.285Z,2.50
2018-12-03T15:10:39.706Z,2.47
2018-12-03T15:13:07.103Z,2.80
2018-12-03T15:15:34.539Z,2.57
2018-12-03T15:18:01.966Z,2.87
2018-12-03T15:20:29.401Z,2.43
2018-12-03T15:22:56.817Z,2.53
2018-12-03T15:25:24.243Z,2.60
2018-12-03T15:27:51.671Z,2.40
2018-12-03T15:30:20.288Z,2.80
2018-12-03T15:32:46.537Z,3.53
2018-12-03T15:35:13.946Z,3.27
2018-12-03T15:37:41.367Z,3.43
2018-12-03T15:40:08.778Z,2.53
2018-12-03T15:42:36.209Z,2.90
2018-12-03T15:45:03.633Z,3.00
2018-12-03T15:47:31.063Z,2.20
2018-12-03T15:49:58.471Z,2.30
2018-12-03T15:52:25.889Z,2.70
2018-12-03T15:54:53.304Z,2.93
2018-12-03T15:57:20.701Z,2.20
2018-12-03T15:59:48.144Z,2.30
2018-12-03T16:02:15.561Z,2.63
2018-12-03T16:04:42.996Z,2.70
2018-12-03T16:07:10.403Z,2.80
2018-12-03T16:09:37.834Z,2.60
2018-12-03T16:12:05.256Z,2.67
2018-12-03T16:14:32.692Z,3.30
2018-12-03T16:17:00.091Z,3.30
2018-12-03T16:19:27.511Z,3.03
2018-12-03T16:21:54.938Z,4.07
2018-12-03T16:24:22.375Z,3.13
2018-12-03T16:26:49.813Z,3.07
2018-12-03T16:29:17.232Z,3.23
2018-12-03T16:31:44.650Z,3.43
2018-12-03T16:34:12.051Z,2.97
2018-12-03T16:36:39.475Z,3.43
2018-12-03T16:39:06.880Z,3.50
2018-12-03T16:41:34.330Z,4.03
2018-12-03T16:44:01.755Z,3.40
2018-12-03T16:46:29.191Z,4.13
2018-12-03T16:48:56.616Z,3.40
2018-12-03T16:51:24.065Z,3.20
2018-12-03T16:53:51.495Z,3.47
2018-12-03T16:56:19.076Z,3.30
2018-12-03T16:58:46.464Z,4.17
2018-12-03T17:01:13.948Z,4.60
2018-12-03T17:03:41.360Z,5.30
2018-12-03T17:06:08.781Z,5.03
2018-12-03T17:11:08.385Z,3.57
2018-12-03T17:13:35.818Z,5.00
2018-12-03T17:16:03.300Z,4.37
2018-12-03T17:18:30.733Z,4.53
2018-12-03T17:20:58.292Z,4.60
2018-12-03T17:23:25.753Z,4.57
2018-12-03T17:25:53.140Z,4.63
2018-12-03T17:28:20.597Z,4.50
2018-12-03T17:30:48.170Z,4.37
2018-12-03T17:33:15.584Z,4.40
2018-12-03T17:35:43.043Z,4.07
2018-12-03T17:38:10.482Z,4.10
2018-12-03T17:40:37.934Z,3.97
2018-12-03T17:43:05.372Z,5.37
2018-12-03T17:45:32.786Z,4.23
2018-12-03T17:48:00.224Z,4.47
2018-12-03T17:50:27.688Z,5.23
2018-12-03T17:52:55.142Z,6.63
2018-12-03T17:55:22.595Z,5.13
2018-12-03T17:57:49.996Z,4.50
2018-12-03T18:00:17.438Z,4.57
2018-12-03T18:02:44.858Z,5.57
2018-12-03T18:05:12.560Z,5.70
2018-12-03T18:07:40.044Z,6.13
2018-12-03T18:10:07.696Z,5.33
2018-12-03T18:12:35.112Z,4.17
2018-12-03T18:15:02.708Z,4.93
2018-12-03T18:17:30.151Z,5.00
2018-12-03T18:19:57.584Z,4.77
2018-12-03T18:22:25.043Z,4.77
2018-12-03T18:24:52.511Z,4.40
2018-12-03T18:27:20.942Z,4.73
2018-12-03T18:29:48.394Z,4.63
2018-12-03T18:32:15.843Z,4.30
2018-12-03T18:34:43.304Z,4.10
2018-12-03T18:37:11.820Z,4.90
2018-12-03T18:39:39.502Z,5.80
2018-12-03T18:42:07.083Z,5.17
2018-12-03T18:44:36.943Z,6.33
2018-12-03T18:47:04.418Z,4.93
2018-12-03T18:49:32.010Z,4.53
2018-12-03T18:52:00.759Z,6.20
2018-12-03T18:54:28.175Z,5.63
2018-12-03T18:56:57.196Z,4.77
2018-12-03T18:59:25.813Z,6.07
2018-12-03T19:01:53.439Z,5.67
2018-12-03T19:04:22.570Z,7.97
2018-12-03T19:06:49.997Z,4.60
2018-12-03T19:09:17.652Z,5.30
2018-12-03T19:11:45.386Z,4.87
2018-12-03T19:14:13.082Z,4.70
2018-12-03T19:16:53.890Z,4.90
2018-12-03T19:19:21.754Z,5.50
2018-12-03T19:21:49.075Z,4.70
2018-12-03T19:24:17.315Z,5.50
2018-12-03T19:26:44.702Z,6.03
2018-12-03T19:29:12.221Z,5.03
2018-12-03T19:31:39.797Z,5.03
2018-12-03T19:34:07.262Z,5.77
2018-12-03T19:36:34.687Z,4.57
2018-12-03T19:39:02.102Z,5.13
2018-12-03T19:41:29.566Z,5.30
2018-12-03T19:43:56.983Z,4.90
2018-12-03T19:46:24.421Z,4.63
2018-12-03T19:48:51.927Z,4.63
2018-12-03T19:51:19.342Z,5.13
2018-12-03T19:53:46.789Z,4.83
2018-12-03T19:56:14.227Z,4.80
2018-12-03T19:58:41.673Z,4.57
2018-12-03T20:01:09.304Z,4.53
2018-12-03T20:03:36.860Z,4.77
2018-12-03T20:06:04.294Z,5.37
2018-12-03T20:08:31.750Z,5.30
2018-12-03T20:10:59.372Z,5.30
2018-12-03T20:13:26.823Z,5.33
2018-12-03T20:15:54.239Z,6.40
2018-12-03T20:18:21.668Z,4.60
2018-12-03T20:20:49.090Z,5.03
2018-12-03T20:23:16.544Z,4.63
2018-12-03T20:25:49.765Z,5.03
2018-12-03T20:28:17.405Z,5.03
2018-12-03T20:30:45.466Z,4.40
2018-12-03T20:33:13.101Z,5.13
2018-12-03T20:35:40.771Z,4.27
2018-12-03T20:38:12.248Z,4.37
2018-12-03T20:40:39.629Z,5.00
2018-12-03T20:43:07.044Z,4.10
2018-12-03T20:45:34.459Z,4.77
2018-12-03T20:48:01.926Z,4.47
2018-12-03T20:50:29.363Z,5.07
2018-12-03T20:52:56.813Z,5.43
2018-12-03T20:55:24.249Z,4.30
2018-12-03T20:57:51.663Z,5.10
2018-12-03T21:00:19.085Z,5.23
2018-12-03T21:02:46.525Z,5.63
2018-12-03T21:05:13.935Z,5.50
2018-12-03T21:07:41.371Z,6.00
2018-12-03T21:10:08.777Z,6.40
2018-12-03T21:12:36.235Z,6.50
2018-12-03T21:15:03.681Z,6.30
2018-12-03T21:17:31.099Z,7.33
2018-12-03T21:19:58.535Z,7.73
2018-12-03T21:22:25.943Z,6.30
2018-12-03T21:24:53.375Z,5.50
2018-12-03T21:27:20.826Z,5.00
2018-12-03T21:29:48.249Z,4.77
2018-12-03T21:32:15.673Z,5.07
2018-12-03T21:34:43.140Z,6.10
2018-12-03T21:37:10.595Z,4.57
2018-12-03T21:39:38.004Z,5.13
2018-12-03T21:42:05.431Z,4.70
2018-12-03T21:44:32.853Z,4.13
2018-12-03T21:47:00.289Z,4.80
2018-12-03T21:49:27.717Z,5.03
2018-12-03T21:51:55.153Z,5.10
2018-12-03T21:54:22.554Z,4.97
2018-12-03T21:56:50.005Z,5.53
2018-12-03T21:59:17.437Z,5.50
2018-12-03T22:01:44.899Z,5.60
2018-12-03T22:04:12.336Z,6.23
2018-12-03T22:06:39.771Z,6.33
2018-12-03T22:09:07.190Z,7.13
2018-12-03T22:11:34.586Z,7.07
2018-12-03T22:14:02.158Z,6.40
2018-12-03T22:16:29.446Z,6.37
2018-12-03T22:18:56.896Z,5.83
2018-12-03T22:21:24.290Z,4.70
2018-12-03T22:23:51.716Z,4.33
2018-12-03T22:26:19.132Z,4.50
2018-12-03T22:28:46.579Z,4.23
2018-12-03T22:31:13.982Z,3.47
2018-12-03T22:33:41.424Z,2.93
2018-12-03T22:36:08.863Z,2.70
2018-12-03T22:38:40.128Z,2.30
2018-12-03T22:41:17.797Z,2.17
2018-12-03T22:43:47.797Z,2.73
2018-12-03T22:46:15.209Z,2.77
2018-12-03T22:48:42.641Z,3.23
2018-12-03T22:51:10.051Z,2.57
2018-12-03T22:53:37.482Z,3.17
2018-12-03T22:56:04.887Z,2.13
2018-12-03T22:58:32.307Z,2.20
2018-12-03T23:00:59.716Z,2.50
2018-12-03T23:03:27.134Z,2.07
2018-12-03T23:05:54.542Z,2.27
2018-12-03T23:08:21.979Z,2.80
2018-12-03T23:10:49.393Z,2.77
2018-12-03T23:13:16.824Z,3.20
2018-12-03T23:15:44.251Z,4.50
2018-12-03T23:18:11.671Z,4.07
2018-12-03T23:20:39.070Z,4.37
2018-12-03T23:23:06.502Z,4.27
2018-12-03T23:25:33.918Z,5.17
2018-12-03T23:28:01.347Z,5.10
2018-12-03T23:30:28.751Z,4.87
2018-12-03T23:32:56.179Z,4.27
2018-12-03T23:35:23.584Z,3.80
2018-12-03T23:37:50.985Z,3.57
2018-12-03T23:40:18.411Z,3.50
2018-12-03T23:42:45.827Z,3.10
2018-12-03T23:45:13.252Z,3.30
2018-12-03T23:47:40.656Z,3.33
2018-12-03T23:50:08.108Z,3.03
2018-12-03T23:52:35.510Z,3.27
2018-12-03T23:55:02.940Z,3.57
2018-12-03T23:57:30.354Z,4.67
2018-12-03T23:59:57.789Z,7.17
